createdAt,value
2023-03-23T15:58:30.690Z,5.03
2023-03-23T16:00:59.720Z,5.20
2023-03-23T16:03:30.492Z,4.27
2023-03-23T16:05:59.969Z,8.27
2023-03-23T16:08:28.281Z,6.77
2023-03-23T16:10:56.663Z,4.93
2023-03-23T16:13:24.902Z,4.17
2023-03-23T16:16:09.535Z,4.07
2023-03-23T16:18:37.831Z,3.80
2023-03-23T16:21:06.601Z,3.67
2023-03-23T16:23:34.874Z,3.90
2023-03-23T16:26:03.123Z,5.23
2023-03-23T16:28:31.444Z,4.67
2023-03-23T16:31:01.170Z,3.43
2023-03-23T16:33:29.691Z,3.80
2023-03-23T16:35:58.604Z,4.33
2023-03-23T16:38:26.983Z,4.83
2023-03-23T16:40:55.877Z,5.00
2023-03-23T16:43:24.154Z,5.10
2023-03-23T16:45:52.424Z,6.97
2023-03-23T16:48:22.220Z,6.30
2023-03-23T16:50:50.566Z,6.27
2023-03-23T16:53:19.454Z,5.47
2023-03-23T16:55:48.588Z,6.03
2023-03-23T16:58:17.998Z,7.70
2023-03-23T17:00:48.112Z,6.50
2023-03-23T17:03:16.964Z,5.47
2023-03-23T17:05:47.060Z,6.03
2023-03-23T17:08:15.574Z,6.03
2023-03-23T17:10:44.491Z,5.80
2023-03-23T17:13:12.898Z,5.20
2023-03-23T17:15:43.814Z,5.70
2023-03-23T17:18:14.279Z,4.77
2023-03-23T17:20:42.962Z,4.87
2023-03-23T17:23:12.709Z,5.23
2023-03-23T17:25:41.176Z,5.67
2023-03-23T17:28:09.475Z,5.50
2023-03-23T17:30:37.739Z,6.80
2023-03-23T17:33:06.000Z,7.53
2023-03-23T17:35:34.363Z,7.23
2023-03-23T17:38:02.656Z,7.13
2023-03-23T17:40:32.367Z,7.00
2023-03-23T17:43:00.701Z,7.70
2023-03-23T17:45:29.153Z,8.27
2023-03-23T17:47:57.431Z,7.83
2023-03-23T17:50:25.770Z,7.93
2023-03-23T17:52:54.074Z,8.00
2023-03-23T17:55:22.316Z,7.73
2023-03-23T17:57:52.020Z,8.67
2023-03-23T18:00:21.495Z,8.80
2023-03-23T18:02:49.862Z,9.80
2023-03-23T18:05:18.347Z,9.90
2023-03-23T18:07:46.668Z,10.47
2023-03-23T18:10:15.126Z,10.03
2023-03-23T18:12:43.412Z,9.53
2023-03-23T18:15:13.327Z,9.30
2023-03-23T18:17:42.394Z,9.70
2023-03-23T18:20:10.915Z,9.13
2023-03-23T18:22:39.268Z,10.27
2023-03-23T18:25:07.781Z,9.80
2023-03-23T18:27:36.172Z,9.10
2023-03-23T18:30:04.697Z,10.73
2023-03-23T18:32:36.151Z,12.20
2023-03-23T18:35:04.904Z,12.70
2023-03-23T18:37:33.214Z,14.50
2023-03-23T18:40:01.466Z,17.47
2023-03-23T18:42:29.736Z,17.47
2023-03-23T18:44:59.957Z,17.90
2023-03-23T18:47:28.329Z,17.57
2023-03-23T18:49:59.629Z,16.97
2023-03-23T18:52:30.834Z,17.50
2023-03-23T18:54:59.139Z,17.47
2023-03-23T18:57:27.518Z,18.90
2023-03-23T18:59:55.786Z,19.77
2023-03-23T19:02:24.159Z,22.08
2023-03-23T19:04:52.555Z,23.27
2023-03-23T19:07:22.256Z,21.53
2023-03-23T19:09:50.574Z,22.87
2023-03-23T19:12:18.900Z,21.63
2023-03-23T19:14:47.175Z,22.20
2023-03-23T19:17:15.609Z,20.10
2023-03-23T19:19:44.834Z,20.77
2023-03-23T19:22:13.194Z,20.23
2023-03-23T19:24:42.951Z,20.30
2023-03-23T19:27:11.286Z,20.77
2023-03-23T19:29:39.836Z,19.73
2023-03-23T19:32:09.485Z,20.43
2023-03-23T19:34:39.419Z,18.13
2023-03-23T19:37:11.108Z,15.70
2023-03-23T19:39:41.814Z,16.17
2023-03-23T19:42:17.011Z,15.57
2023-03-23T19:44:45.498Z,16.50
2023-03-23T19:47:13.931Z,14.57
2023-03-23T19:49:42.488Z,15.07
2023-03-23T19:52:12.828Z,15.90
2023-03-23T19:54:42.449Z,16.63
2023-03-23T19:57:12.498Z,16.57
2023-03-23T19:59:40.997Z,16.03
2023-03-23T20:02:11.713Z,16.30
2023-03-23T20:04:40.141Z,16.97
2023-03-23T20:07:08.780Z,15.93
2023-03-23T20:09:38.263Z,15.33
2023-03-23T20:12:07.367Z,15.67
2023-03-23T20:14:38.408Z,18.03
2023-03-23T20:17:09.924Z,18.20
2023-03-23T20:19:38.631Z,18.70
2023-03-23T20:22:07.374Z,18.20
2023-03-23T20:24:38.019Z,19.97
2023-03-23T20:27:06.749Z,20.30
2023-03-23T20:29:36.892Z,19.23
2023-03-23T20:32:05.455Z,22.27
2023-03-23T20:34:34.146Z,18.87
2023-03-23T20:37:02.995Z,14.17
2023-03-23T20:39:32.574Z,12.33
2023-03-23T20:42:03.515Z,13.27
2023-03-23T20:44:36.189Z,12.47
2023-03-23T20:47:06.834Z,11.63
2023-03-23T20:49:35.338Z,11.13
2023-03-23T20:52:03.721Z,11.80
2023-03-23T20:54:32.266Z,10.67
2023-03-23T20:57:01.302Z,12.83
2023-03-23T20:59:29.732Z,12.33
2023-03-23T21:01:58.203Z,12.37
2023-03-23T21:04:30.328Z,13.90
2023-03-23T21:07:00.801Z,13.10
2023-03-23T21:09:29.384Z,12.97
2023-03-23T21:11:59.248Z,13.57
2023-03-23T21:14:27.739Z,14.73
2023-03-23T21:16:57.063Z,12.90
2023-03-23T21:19:30.460Z,12.27
2023-03-23T21:21:59.100Z,13.50
2023-03-23T21:24:28.684Z,12.83
2023-03-23T21:26:58.458Z,13.50
2023-03-23T21:29:27.640Z,11.97
2023-03-23T21:34:29.926Z,11.43
2023-03-23T21:36:58.433Z,10.00
2023-03-23T21:39:27.187Z,10.50
2023-03-23T21:41:55.673Z,11.43
2023-03-23T21:44:24.387Z,11.20
2023-03-23T21:46:54.750Z,9.80
2023-03-23T21:49:23.450Z,10.63
2023-03-23T21:51:53.225Z,9.47
2023-03-23T21:54:21.741Z,8.23
2023-03-23T21:56:53.368Z,8.47
2023-03-23T21:59:23.076Z,8.03
2023-03-23T22:01:52.191Z,7.97
2023-03-23T22:04:21.192Z,8.33
2023-03-23T22:06:49.736Z,7.77
2023-03-23T22:09:19.756Z,8.57
2023-03-23T22:11:48.276Z,8.00
2023-03-23T22:14:16.822Z,7.40
2023-03-23T22:16:45.291Z,7.07
2023-03-23T22:19:13.910Z,6.43
2023-03-23T22:21:42.597Z,6.23
2023-03-23T22:24:11.340Z,6.67
2023-03-23T22:26:41.472Z,6.23
2023-03-23T22:29:11.350Z,6.60
2023-03-23T22:31:40.564Z,5.53
2023-03-23T22:34:09.092Z,5.43
2023-03-23T22:36:38.880Z,5.73
2023-03-23T22:39:07.397Z,5.97
2023-03-23T22:41:38.532Z,5.50
2023-03-23T22:44:12.752Z,5.70
2023-03-23T22:46:41.403Z,5.20
2023-03-23T22:49:10.235Z,4.90
2023-03-23T22:51:38.790Z,5.10
2023-03-23T22:54:07.449Z,5.00
2023-03-23T22:56:37.475Z,4.90
2023-03-23T22:59:07.541Z,5.00
2023-03-23T23:01:37.459Z,4.77
2023-03-23T23:06:48.767Z,4.50
2023-03-23T23:09:17.255Z,4.53
2023-03-23T23:11:45.727Z,4.40
2023-03-23T23:14:15.646Z,3.97
2023-03-23T23:16:44.747Z,4.03
2023-03-23T23:19:13.442Z,4.13
2023-03-23T23:21:42.386Z,4.13
2023-03-23T23:24:10.869Z,4.63
2023-03-23T23:26:39.332Z,4.13
2023-03-23T23:29:08.072Z,4.60
2023-03-23T23:31:38.758Z,4.30
2023-03-23T23:34:07.436Z,4.90
2023-03-23T23:36:36.220Z,5.17
2023-03-23T23:39:06.102Z,4.47
2023-03-23T23:41:34.830Z,5.13
2023-03-23T23:44:03.348Z,4.20
2023-03-23T23:46:32.149Z,4.77
2023-03-23T23:49:02.395Z,4.67
2023-03-23T23:51:33.682Z,5.13
2023-03-23T23:54:02.688Z,4.17
2023-03-23T23:56:31.955Z,4.27
2023-03-23T23:59:00.497Z,4.93
